sensor_id;sensor_type;location;lat;lon;timestamp;temperature;humidity
48535;DHT22;34323;52.022;5.686;2023-04-25T00:01:21;12.90;99.90
48535;DHT22;34323;52.022;5.686;2023-04-25T00:03:48;12.90;99.90
48535;DHT22;34323;52.022;5.686;2023-04-25T00:06:13;12.90;99.90
48535;DHT22;34323;52.022;5.686;2023-04-25T00:08:39;13.00;99.90
48535;DHT22;34323;52.022;5.686;2023-04-25T00:11:05;13.10;99.90
48535;DHT22;34323;52.022;5.686;2023-04-25T00:13:32;13.30;99.90
48535;DHT22;34323;52.022;5.686;2023-04-25T00:15:58;13.20;99.90
48535;DHT22;34323;52.022;5.686;2023-04-25T00:18:24;13.30;99.90
48535;DHT22;34323;52.022;5.686;2023-04-25T00:20:49;13.60;99.90
48535;DHT22;34323;52.022;5.686;2023-04-25T00:23:16;13.80;99.90
48535;DHT22;34323;52.022;5.686;2023-04-25T00:25:46;13.70;99.90
48535;DHT22;34323;52.022;5.686;2023-04-25T00:28:12;13.30;99.90
48535;DHT22;34323;52.022;5.686;2023-04-25T00:30:39;13.20;99.90
48535;DHT22;34323;52.022;5.686;2023-04-25T00:33:05;13.20;99.90
48535;DHT22;34323;52.022;5.686;2023-04-25T00:35:30;13.10;99.90
48535;DHT22;34323;52.022;5.686;2023-04-25T00:37:56;13.00;99.90
48535;DHT22;34323;52.022;5.686;2023-04-25T00:40:21;13.00;99.90
48535;DHT22;34323;52.022;5.686;2023-04-25T00:42:47;13.00;99.90
48535;DHT22;34323;52.022;5.686;2023-04-25T00:45:14;12.80;99.90
48535;DHT22;34323;52.022;5.686;2023-04-25T00:47:41;12.50;99.90
48535;DHT22;34323;52.022;5.686;2023-04-25T00:50:07;12.50;99.90
48535;DHT22;34323;52.022;5.686;2023-04-25T00:52:33;12.60;99.90
48535;DHT22;34323;52.022;5.686;2023-04-25T00:54:59;12.70;99.90
48535;DHT22;34323;52.022;5.686;2023-04-25T00:57:25;12.90;99.90
48535;DHT22;34323;52.022;5.686;2023-04-25T00:59:52;13.00;99.90
48535;DHT22;34323;52.022;5.686;2023-04-25T01:02:18;12.80;99.90
48535;DHT22;34323;52.022;5.686;2023-04-25T01:04:44;12.50;99.90
48535;DHT22;34323;52.022;5.686;2023-04-25T01:07:11;12.60;99.90
48535;DHT22;34323;52.022;5.686;2023-04-25T01:09:37;12.80;99.90
48535;DHT22;34323;52.022;5.686;2023-04-25T01:12:02;12.90;99.90
48535;DHT22;34323;52.022;5.686;2023-04-25T01:14:28;12.80;99.90
48535;DHT22;34323;52.022;5.686;2023-04-25T01:16:55;12.60;99.90
48535;DHT22;34323;52.022;5.686;2023-04-25T01:19:20;12.60;99.90
48535;DHT22;34323;52.022;5.686;2023-04-25T01:21:46;12.40;99.90
48535;DHT22;34323;52.022;5.686;2023-04-25T01:24:12;12.50;99.90
48535;DHT22;34323;52.022;5.686;2023-04-25T01:26:39;12.50;99.90
48535;DHT22;34323;52.022;5.686;2023-04-25T01:29:07;12.60;99.90
48535;DHT22;34323;52.022;5.686;2023-04-25T01:31:34;12.80;99.90
48535;DHT22;34323;52.022;5.686;2023-04-25T01:34:00;12.60;99.90
48535;DHT22;34323;52.022;5.686;2023-04-25T01:36:26;12.80;99.90
48535;DHT22;34323;52.022;5.686;2023-04-25T01:38:52;12.90;99.90
48535;DHT22;34323;52.022;5.686;2023-04-25T01:41:18;13.10;99.90
48535;DHT22;34323;52.022;5.686;2023-04-25T01:43:44;13.20;99.90
48535;DHT22;34323;52.022;5.686;2023-04-25T01:46:11;13.20;99.90
48535;DHT22;34323;52.022;5.686;2023-04-25T01:48:37;13.50;99.90
48535;DHT22;34323;52.022;5.686;2023-04-25T01:51:03;13.50;99.90
48535;DHT22;34323;52.022;5.686;2023-04-25T01:53:29;13.60;99.90
48535;DHT22;34323;52.022;5.686;2023-04-25T01:55:54;13.30;99.90
48535;DHT22;34323;52.022;5.686;2023-04-25T01:58:20;12.90;99.90
48535;DHT22;34323;52.022;5.686;2023-04-25T02:00:46;13.00;99.90
48535;DHT22;34323;52.022;5.686;2023-04-25T02:03:12;12.90;99.90
48535;DHT22;34323;52.022;5.686;2023-04-25T02:05:38;12.90;99.90
48535;DHT22;34323;52.022;5.686;2023-04-25T02:08:08;12.90;99.90
48535;DHT22;34323;52.022;5.686;2023-04-25T02:10:34;12.90;99.90
48535;DHT22;34323;52.022;5.686;2023-04-25T02:13:00;12.90;99.90
48535;DHT22;34323;52.022;5.686;2023-04-25T02:15:26;13.00;99.90
48535;DHT22;34323;52.022;5.686;2023-04-25T02:17:52;12.80;99.90
48535;DHT22;34323;52.022;5.686;2023-04-25T02:20:19;12.90;99.90
48535;DHT22;34323;52.022;5.686;2023-04-25T02:22:45;12.90;99.90
48535;DHT22;34323;52.022;5.686;2023-04-25T02:25:11;13.00;99.90
48535;DHT22;34323;52.022;5.686;2023-04-25T02:27:37;12.80;99.90
48535;DHT22;34323;52.022;5.686;2023-04-25T02:30:04;12.80;99.90
48535;DHT22;34323;52.022;5.686;2023-04-25T02:32:30;12.90;99.90
48535;DHT22;34323;52.022;5.686;2023-04-25T02:34:55;12.80;99.90
48535;DHT22;34323;52.022;5.686;2023-04-25T02:37:24;12.80;99.90
48535;DHT22;34323;52.022;5.686;2023-04-25T02:39:49;12.80;99.90
48535;DHT22;34323;52.022;5.686;2023-04-25T02:42:15;12.80;99.90
48535;DHT22;34323;52.022;5.686;2023-04-25T02:44:41;12.30;99.90
48535;DHT22;34323;52.022;5.686;2023-04-25T02:47:06;12.20;99.90
48535;DHT22;34323;52.022;5.686;2023-04-25T02:49:32;12.40;99.90
48535;DHT22;34323;52.022;5.686;2023-04-25T02:51:57;12.40;99.90
48535;DHT22;34323;52.022;5.686;2023-04-25T02:54:23;12.40;99.90
48535;DHT22;34323;52.022;5.686;2023-04-25T02:56:48;12.40;99.90
48535;DHT22;34323;52.022;5.686;2023-04-25T02:59:14;12.50;99.90
48535;DHT22;34323;52.022;5.686;2023-04-25T03:01:39;12.40;99.90
48535;DHT22;34323;52.022;5.686;2023-04-25T03:04:05;12.30;99.90
48535;DHT22;34323;52.022;5.686;2023-04-25T03:06:30;12.30;99.90
48535;DHT22;34323;52.022;5.686;2023-04-25T03:08:56;12.30;99.90
48535;DHT22;34323;52.022;5.686;2023-04-25T03:11:21;12.30;99.90
48535;DHT22;34323;52.022;5.686;2023-04-25T03:13:47;11.80;99.90
48535;DHT22;34323;52.022;5.686;2023-04-25T03:16:13;11.50;99.90
48535;DHT22;34323;52.022;5.686;2023-04-25T03:18:38;11.20;99.90
48535;DHT22;34323;52.022;5.686;2023-04-25T03:21:04;10.80;99.90
48535;DHT22;34323;52.022;5.686;2023-04-25T03:23:29;10.90;99.90
48535;DHT22;34323;52.022;5.686;2023-04-25T03:25:55;10.90;99.90
48535;DHT22;34323;52.022;5.686;2023-04-25T03:28:21;11.00;99.90
48535;DHT22;34323;52.022;5.686;2023-04-25T03:30:47;10.80;99.90
48535;DHT22;34323;52.022;5.686;2023-04-25T03:33:13;10.90;99.90
48535;DHT22;34323;52.022;5.686;2023-04-25T03:35:38;11.10;99.90
48535;DHT22;34323;52.022;5.686;2023-04-25T03:38:04;11.10;99.90
48535;DHT22;34323;52.022;5.686;2023-04-25T03:40:29;11.00;99.90
48535;DHT22;34323;52.022;5.686;2023-04-25T03:42:55;11.00;99.90
48535;DHT22;34323;52.022;5.686;2023-04-25T03:45:21;11.00;99.90
48535;DHT22;34323;52.022;5.686;2023-04-25T03:47:46;10.80;99.90
48535;DHT22;34323;52.022;5.686;2023-04-25T03:50:12;10.40;99.90
48535;DHT22;34323;52.022;5.686;2023-04-25T03:52:37;10.50;99.90
48535;DHT22;34323;52.022;5.686;2023-04-25T03:55:03;10.50;99.90
48535;DHT22;34323;52.022;5.686;2023-04-25T03:57:30;10.60;99.90
48535;DHT22;34323;52.022;5.686;2023-04-25T03:59:55;10.60;99.90
48535;DHT22;34323;52.022;5.686;2023-04-25T04:02:22;10.70;99.90
48535;DHT22;34323;52.022;5.686;2023-04-25T04:04:47;10.40;99.90
48535;DHT22;34323;52.022;5.686;2023-04-25T04:07:13;10.30;99.90
48535;DHT22;34323;52.022;5.686;2023-04-25T04:09:38;10.30;99.90
48535;DHT22;34323;52.022;5.686;2023-04-25T04:12:04;10.30;99.90
48535;DHT22;34323;52.022;5.686;2023-04-25T04:14:30;9.90;99.90
48535;DHT22;34323;52.022;5.686;2023-04-25T04:16:55;9.80;99.90
48535;DHT22;34323;52.022;5.686;2023-04-25T04:19:21;9.60;99.90
48535;DHT22;34323;52.022;5.686;2023-04-25T04:21:46;9.70;99.90
48535;DHT22;34323;52.022;5.686;2023-04-25T04:24:12;9.90;99.90
48535;DHT22;34323;52.022;5.686;2023-04-25T04:26:38;10.10;99.90
48535;DHT22;34323;52.022;5.686;2023-04-25T04:29:04;10.10;99.90
48535;DHT22;34323;52.022;5.686;2023-04-25T04:31:29;10.30;99.90
48535;DHT22;34323;52.022;5.686;2023-04-25T04:33:55;10.40;99.90
48535;DHT22;34323;52.022;5.686;2023-04-25T04:36:21;10.70;99.90
48535;DHT22;34323;52.022;5.686;2023-04-25T04:38:48;10.90;99.90
48535;DHT22;34323;52.022;5.686;2023-04-25T04:41:14;11.10;99.90
48535;DHT22;34323;52.022;5.686;2023-04-25T04:43:39;11.20;99.90
48535;DHT22;34323;52.022;5.686;2023-04-25T04:46:05;11.30;99.90
48535;DHT22;34323;52.022;5.686;2023-04-25T04:48:31;11.40;99.90
48535;DHT22;34323;52.022;5.686;2023-04-25T04:51:00;11.50;99.90
48535;DHT22;34323;52.022;5.686;2023-04-25T04:53:26;11.70;99.90
48535;DHT22;34323;52.022;5.686;2023-04-25T04:55:52;11.50;99.90
48535;DHT22;34323;52.022;5.686;2023-04-25T04:58:18;11.40;99.90
48535;DHT22;34323;52.022;5.686;2023-04-25T05:00:44;11.20;99.90
48535;DHT22;34323;52.022;5.686;2023-04-25T05:03:10;11.20;99.90
48535;DHT22;34323;52.022;5.686;2023-04-25T05:05:36;11.30;99.90
48535;DHT22;34323;52.022;5.686;2023-04-25T05:08:05;11.40;99.90
48535;DHT22;34323;52.022;5.686;2023-04-25T05:10:31;11.80;99.90
48535;DHT22;34323;52.022;5.686;2023-04-25T05:12:57;11.90;99.90
48535;DHT22;34323;52.022;5.686;2023-04-25T05:15:22;11.90;99.90
48535;DHT22;34323;52.022;5.686;2023-04-25T05:17:48;11.90;99.90
48535;DHT22;34323;52.022;5.686;2023-04-25T05:20:13;12.10;99.90
48535;DHT22;34323;52.022;5.686;2023-04-25T05:22:39;12.10;99.90
48535;DHT22;34323;52.022;5.686;2023-04-25T05:25:10;12.10;99.90
48535;DHT22;34323;52.022;5.686;2023-04-25T05:27:35;12.20;99.90
48535;DHT22;34323;52.022;5.686;2023-04-25T05:30:01;12.30;99.90
48535;DHT22;34323;52.022;5.686;2023-04-25T05:32:26;12.30;99.90
48535;DHT22;34323;52.022;5.686;2023-04-25T05:34:52;12.40;99.90
48535;DHT22;34323;52.022;5.686;2023-04-25T05:37:18;12.50;99.90
48535;DHT22;34323;52.022;5.686;2023-04-25T05:39:44;12.70;99.90
48535;DHT22;34323;52.022;5.686;2023-04-25T05:42:09;12.60;99.90
48535;DHT22;34323;52.022;5.686;2023-04-25T05:44:35;12.70;99.90
48535;DHT22;34323;52.022;5.686;2023-04-25T05:47:01;12.90;99.90
48535;DHT22;34323;52.022;5.686;2023-04-25T05:49:26;12.90;99.90
48535;DHT22;34323;52.022;5.686;2023-04-25T05:51:52;13.10;99.90
48535;DHT22;34323;52.022;5.686;2023-04-25T05:54:17;13.00;99.90
48535;DHT22;34323;52.022;5.686;2023-04-25T05:56:43;12.90;99.90
48535;DHT22;34323;52.022;5.686;2023-04-25T05:59:08;12.60;99.90
48535;DHT22;34323;52.022;5.686;2023-04-25T06:01:34;12.50;99.90
48535;DHT22;34323;52.022;5.686;2023-04-25T06:04:00;12.40;99.90
48535;DHT22;34323;52.022;5.686;2023-04-25T06:06:26;12.60;99.90
48535;DHT22;34323;52.022;5.686;2023-04-25T06:08:52;12.60;99.90
48535;DHT22;34323;52.022;5.686;2023-04-25T06:11:18;12.70;99.90
48535;DHT22;34323;52.022;5.686;2023-04-25T06:13:44;12.60;99.90
48535;DHT22;34323;52.022;5.686;2023-04-25T06:16:09;12.60;99.90
48535;DHT22;34323;52.022;5.686;2023-04-25T06:18:35;12.50;99.90
48535;DHT22;34323;52.022;5.686;2023-04-25T06:21:01;12.30;99.90
48535;DHT22;34323;52.022;5.686;2023-04-25T06:23:26;12.20;99.90
48535;DHT22;34323;52.022;5.686;2023-04-25T06:25:52;12.30;99.90
48535;DHT22;34323;52.022;5.686;2023-04-25T06:28:17;12.30;99.90
48535;DHT22;34323;52.022;5.686;2023-04-25T06:30:44;12.30;99.90
48535;DHT22;34323;52.022;5.686;2023-04-25T06:33:09;12.40;99.90
48535;DHT22;34323;52.022;5.686;2023-04-25T06:35:35;12.70;99.90
48535;DHT22;34323;52.022;5.686;2023-04-25T06:38:00;12.70;99.90
48535;DHT22;34323;52.022;5.686;2023-04-25T06:40:26;12.70;99.90
48535;DHT22;34323;52.022;5.686;2023-04-25T06:42:51;12.80;99.90
48535;DHT22;34323;52.022;5.686;2023-04-25T06:45:17;13.00;99.90
48535;DHT22;34323;52.022;5.686;2023-04-25T06:47:42;12.90;99.90
48535;DHT22;34323;52.022;5.686;2023-04-25T06:50:08;12.80;99.90
48535;DHT22;34323;52.022;5.686;2023-04-25T06:52:34;12.60;99.90
48535;DHT22;34323;52.022;5.686;2023-04-25T06:54:59;12.70;99.90
48535;DHT22;34323;52.022;5.686;2023-04-25T06:57:25;12.80;99.90
48535;DHT22;34323;52.022;5.686;2023-04-25T06:59:51;12.80;99.90
48535;DHT22;34323;52.022;5.686;2023-04-25T07:02:16;13.00;99.90
48535;DHT22;34323;52.022;5.686;2023-04-25T07:04:42;13.00;99.90
48535;DHT22;34323;52.022;5.686;2023-04-25T07:07:07;13.10;99.90
48535;DHT22;34323;52.022;5.686;2023-04-25T07:09:33;13.10;99.90
48535;DHT22;34323;52.022;5.686;2023-04-25T07:11:59;13.10;99.90
48535;DHT22;34323;52.022;5.686;2023-04-25T07:14:27;13.30;99.90
48535;DHT22;34323;52.022;5.686;2023-04-25T07:16:52;13.20;99.90
48535;DHT22;34323;52.022;5.686;2023-04-25T07:19:18;13.40;99.90
48535;DHT22;34323;52.022;5.686;2023-04-25T07:21:43;13.40;99.90
48535;DHT22;34323;52.022;5.686;2023-04-25T07:24:09;13.60;99.90
48535;DHT22;34323;52.022;5.686;2023-04-25T07:26:34;13.50;99.90
48535;DHT22;34323;52.022;5.686;2023-04-25T07:29:00;13.40;99.90
48535;DHT22;34323;52.022;5.686;2023-04-25T07:31:26;13.30;99.90
48535;DHT22;34323;52.022;5.686;2023-04-25T07:33:52;13.20;99.90
48535;DHT22;34323;52.022;5.686;2023-04-25T07:36:17;13.00;99.90
48535;DHT22;34323;52.022;5.686;2023-04-25T07:38:43;12.90;99.90
48535;DHT22;34323;52.022;5.686;2023-04-25T07:41:08;13.10;99.90
48535;DHT22;34323;52.022;5.686;2023-04-25T07:43:34;13.10;99.90
48535;DHT22;34323;52.022;5.686;2023-04-25T07:46:00;13.00;99.90
48535;DHT22;34323;52.022;5.686;2023-04-25T07:48:25;12.80;99.90
48535;DHT22;34323;52.022;5.686;2023-04-25T07:50:51;13.00;99.90
48535;DHT22;34323;52.022;5.686;2023-04-25T07:53:16;12.90;99.90
48535;DHT22;34323;52.022;5.686;2023-04-25T07:55:43;13.00;99.90
48535;DHT22;34323;52.022;5.686;2023-04-25T07:58:09;13.10;99.90
48535;DHT22;34323;52.022;5.686;2023-04-25T08:00:35;13.10;99.90
48535;DHT22;34323;52.022;5.686;2023-04-25T08:03:01;12.90;99.90
48535;DHT22;34323;52.022;5.686;2023-04-25T08:05:26;13.00;99.90
48535;DHT22;34323;52.022;5.686;2023-04-25T08:07:52;13.40;99.90
48535;DHT22;34323;52.022;5.686;2023-04-25T08:10:17;13.60;99.90
48535;DHT22;34323;52.022;5.686;2023-04-25T08:12:43;13.70;99.90
48535;DHT22;34323;52.022;5.686;2023-04-25T08:15:09;13.60;99.90
48535;DHT22;34323;52.022;5.686;2023-04-25T08:17:35;13.30;99.90
48535;DHT22;34323;52.022;5.686;2023-04-25T08:20:01;13.30;99.90
48535;DHT22;34323;52.022;5.686;2023-04-25T08:22:29;13.30;99.90
48535;DHT22;34323;52.022;5.686;2023-04-25T08:24:55;13.50;99.90
48535;DHT22;34323;52.022;5.686;2023-04-25T08:27:21;13.40;99.90
48535;DHT22;34323;52.022;5.686;2023-04-25T08:29:46;13.20;99.90
48535;DHT22;34323;52.022;5.686;2023-04-25T08:32:12;13.30;99.90
48535;DHT22;34323;52.022;5.686;2023-04-25T08:34:38;13.70;99.90
48535;DHT22;34323;52.022;5.686;2023-04-25T08:37:07;13.60;99.90
48535;DHT22;34323;52.022;5.686;2023-04-25T08:39:33;13.40;99.90
48535;DHT22;34323;52.022;5.686;2023-04-25T08:41:59;13.60;99.90
48535;DHT22;34323;52.022;5.686;2023-04-25T08:44:26;13.80;99.90
48535;DHT22;34323;52.022;5.686;2023-04-25T08:46:52;14.00;99.90
48535;DHT22;34323;52.022;5.686;2023-04-25T08:49:18;13.80;99.90
48535;DHT22;34323;52.022;5.686;2023-04-25T08:51:46;13.60;99.90
48535;DHT22;34323;52.022;5.686;2023-04-25T08:54:16;13.30;99.90
48535;DHT22;34323;52.022;5.686;2023-04-25T08:56:47;13.10;99.90
48535;DHT22;34323;52.022;5.686;2023-04-25T08:59:13;13.00;99.90
48535;DHT22;34323;52.022;5.686;2023-04-25T09:01:39;13.10;99.90
48535;DHT22;34323;52.022;5.686;2023-04-25T09:04:05;13.20;99.90
48535;DHT22;34323;52.022;5.686;2023-04-25T09:06:31;12.80;99.90
48535;DHT22;34323;52.022;5.686;2023-04-25T09:09:08;12.90;99.90
48535;DHT22;34323;52.022;5.686;2023-04-25T09:11:35;13.20;99.90
48535;DHT22;34323;52.022;5.686;2023-04-25T09:14:15;13.40;99.90
48535;DHT22;34323;52.022;5.686;2023-04-25T09:17:10;13.60;99.90
48535;DHT22;34323;52.022;5.686;2023-04-25T09:19:37;13.90;99.90
48535;DHT22;34323;52.022;5.686;2023-04-25T09:22:05;14.00;99.90
48535;DHT22;34323;52.022;5.686;2023-04-25T09:24:44;13.80;99.90
48535;DHT22;34323;52.022;5.686;2023-04-25T09:27:13;13.90;99.90
48535;DHT22;34323;52.022;5.686;2023-04-25T09:29:43;14.30;99.90
48535;DHT22;34323;52.022;5.686;2023-04-25T09:34:47;14.60;99.90
48535;DHT22;34323;52.022;5.686;2023-04-25T09:37:21;14.80;99.90
48535;DHT22;34323;52.022;5.686;2023-04-25T09:39:55;14.80;99.90
48535;DHT22;34323;52.022;5.686;2023-04-25T09:42:26;14.90;99.90
48535;DHT22;34323;52.022;5.686;2023-04-25T09:44:54;15.00;99.90
48535;DHT22;34323;52.022;5.686;2023-04-25T09:47:19;14.70;99.90
48535;DHT22;34323;52.022;5.686;2023-04-25T09:49:47;15.00;99.90
48535;DHT22;34323;52.022;5.686;2023-04-25T09:52:18;15.30;99.90
48535;DHT22;34323;52.022;5.686;2023-04-25T09:54:45;15.50;99.90
48535;DHT22;34323;52.022;5.686;2023-04-25T09:57:13;15.50;99.90
48535;DHT22;34323;52.022;5.686;2023-04-25T09:59:43;15.80;99.90
48535;DHT22;34323;52.022;5.686;2023-04-25T10:02:10;16.10;99.90
48535;DHT22;34323;52.022;5.686;2023-04-25T10:04:37;16.00;99.90
48535;DHT22;34323;52.022;5.686;2023-04-25T10:07:05;16.00;99.90
48535;DHT22;34323;52.022;5.686;2023-04-25T10:09:32;15.90;99.90
48535;DHT22;34323;52.022;5.686;2023-04-25T10:12:01;15.80;99.90
48535;DHT22;34323;52.022;5.686;2023-04-25T10:14:30;15.70;99.90
48535;DHT22;34323;52.022;5.686;2023-04-25T10:16:57;15.20;99.90
48535;DHT22;34323;52.022;5.686;2023-04-25T10:19:24;15.00;99.90
48535;DHT22;34323;52.022;5.686;2023-04-25T10:22:07;14.90;99.90
48535;DHT22;34323;52.022;5.686;2023-04-25T10:24:35;14.80;99.90
48535;DHT22;34323;52.022;5.686;2023-04-25T10:27:02;14.90;99.90
48535;DHT22;34323;52.022;5.686;2023-04-25T10:29:28;15.00;99.90
48535;DHT22;34323;52.022;5.686;2023-04-25T10:31:53;14.90;99.90
48535;DHT22;34323;52.022;5.686;2023-04-25T10:34:19;14.80;99.90
48535;DHT22;34323;52.022;5.686;2023-04-25T10:36:50;14.30;99.90
48535;DHT22;34323;52.022;5.686;2023-04-25T10:39:26;14.10;99.90
48535;DHT22;34323;52.022;5.686;2023-04-25T10:41:57;14.30;99.90
48535;DHT22;34323;52.022;5.686;2023-04-25T10:44:26;14.40;99.90
48535;DHT22;34323;52.022;5.686;2023-04-25T10:46:52;14.60;99.90
48535;DHT22;34323;52.022;5.686;2023-04-25T10:49:36;14.80;99.90
48535;DHT22;34323;52.022;5.686;2023-04-25T10:52:18;14.90;99.90
48535;DHT22;34323;52.022;5.686;2023-04-25T10:54:52;15.10;99.90
48535;DHT22;34323;52.022;5.686;2023-04-25T10:59:58;15.90;99.90
48535;DHT22;34323;52.022;5.686;2023-04-25T11:02:26;16.10;99.90
48535;DHT22;34323;52.022;5.686;2023-04-25T11:04:53;16.40;99.90
48535;DHT22;34323;52.022;5.686;2023-04-25T11:07:29;16.20;99.90
48535;DHT22;34323;52.022;5.686;2023-04-25T11:10:01;16.30;99.90
48535;DHT22;34323;52.022;5.686;2023-04-25T11:12:30;16.50;99.90
48535;DHT22;34323;52.022;5.686;2023-04-25T11:15:03;16.80;99.90
48535;DHT22;34323;52.022;5.686;2023-04-25T11:17:29;17.10;99.90
48535;DHT22;34323;52.022;5.686;2023-04-25T11:19:55;17.00;99.90
48535;DHT22;34323;52.022;5.686;2023-04-25T11:22:22;16.90;99.90
48535;DHT22;34323;52.022;5.686;2023-04-25T11:24:48;16.90;99.90
48535;DHT22;34323;52.022;5.686;2023-04-25T11:27:14;16.70;99.90
48535;DHT22;34323;52.022;5.686;2023-04-25T11:29:40;16.90;99.90
48535;DHT22;34323;52.022;5.686;2023-04-25T11:32:06;17.20;99.90
48535;DHT22;34323;52.022;5.686;2023-04-25T11:34:32;17.20;99.90
48535;DHT22;34323;52.022;5.686;2023-04-25T11:36:59;17.20;99.90
48535;DHT22;34323;52.022;5.686;2023-04-25T11:39:26;17.10;99.90
48535;DHT22;34323;52.022;5.686;2023-04-25T11:41:52;17.10;99.90
48535;DHT22;34323;52.022;5.686;2023-04-25T11:44:18;17.10;99.90
48535;DHT22;34323;52.022;5.686;2023-04-25T11:46:45;17.30;99.90
48535;DHT22;34323;52.022;5.686;2023-04-25T11:49:10;17.30;99.90
48535;DHT22;34323;52.022;5.686;2023-04-25T11:51:44;17.00;99.90
48535;DHT22;34323;52.022;5.686;2023-04-25T11:54:11;16.50;99.90
48535;DHT22;34323;52.022;5.686;2023-04-25T11:56:40;15.20;99.90
48535;DHT22;34323;52.022;5.686;2023-04-25T11:59:06;14.70;99.90
48535;DHT22;34323;52.022;5.686;2023-04-25T12:04:09;14.10;99.90
48535;DHT22;34323;52.022;5.686;2023-04-25T12:06:39;14.40;99.90
48535;DHT22;34323;52.022;5.686;2023-04-25T12:09:08;14.60;99.90
48535;DHT22;34323;52.022;5.686;2023-04-25T12:11:44;14.90;99.90
48535;DHT22;34323;52.022;5.686;2023-04-25T12:14:10;14.80;99.90
48535;DHT22;34323;52.022;5.686;2023-04-25T12:16:46;14.80;99.90
48535;DHT22;34323;52.022;5.686;2023-04-25T12:19:16;14.90;99.90
48535;DHT22;34323;52.022;5.686;2023-04-25T12:21:42;14.80;99.90
48535;DHT22;34323;52.022;5.686;2023-04-25T12:24:13;15.20;99.90
48535;DHT22;34323;52.022;5.686;2023-04-25T12:29:16;15.00;99.90
48535;DHT22;34323;52.022;5.686;2023-04-25T12:31:42;15.00;99.90
48535;DHT22;34323;52.022;5.686;2023-04-25T12:34:08;14.90;99.90
48535;DHT22;34323;52.022;5.686;2023-04-25T12:36:33;15.00;99.90
48535;DHT22;34323;52.022;5.686;2023-04-25T12:38:59;15.10;99.90
48535;DHT22;34323;52.022;5.686;2023-04-25T12:41:29;15.00;99.90
48535;DHT22;34323;52.022;5.686;2023-04-25T12:43:55;15.20;99.90
48535;DHT22;34323;52.022;5.686;2023-04-25T12:46:21;15.50;99.90
48535;DHT22;34323;52.022;5.686;2023-04-25T12:48:48;16.00;99.90
48535;DHT22;34323;52.022;5.686;2023-04-25T12:51:13;16.50;99.90
48535;DHT22;34323;52.022;5.686;2023-04-25T12:53:39;16.80;99.90
48535;DHT22;34323;52.022;5.686;2023-04-25T12:56:09;17.00;99.90
48535;DHT22;34323;52.022;5.686;2023-04-25T12:58:35;17.10;99.90
48535;DHT22;34323;52.022;5.686;2023-04-25T13:01:00;17.20;99.90
48535;DHT22;34323;52.022;5.686;2023-04-25T13:03:26;16.80;99.90
48535;DHT22;34323;52.022;5.686;2023-04-25T13:05:52;16.60;99.90
48535;DHT22;34323;52.022;5.686;2023-04-25T13:08:21;16.50;99.90
48535;DHT22;34323;52.022;5.686;2023-04-25T13:10:47;17.00;99.90
48535;DHT22;34323;52.022;5.686;2023-04-25T13:13:13;17.40;99.90
48535;DHT22;34323;52.022;5.686;2023-04-25T13:15:38;17.30;99.90
48535;DHT22;34323;52.022;5.686;2023-04-25T13:18:04;17.50;99.90
48535;DHT22;34323;52.022;5.686;2023-04-25T13:20:31;17.80;99.90
48535;DHT22;34323;52.022;5.686;2023-04-25T13:22:57;18.50;99.90
48535;DHT22;34323;52.022;5.686;2023-04-25T13:25:22;19.10;99.90
48535;DHT22;34323;52.022;5.686;2023-04-25T13:27:48;19.90;99.90
48535;DHT22;34323;52.022;5.686;2023-04-25T13:30:13;20.00;99.90
48535;DHT22;34323;52.022;5.686;2023-04-25T13:32:39;19.80;99.90
48535;DHT22;34323;52.022;5.686;2023-04-25T13:35:07;19.50;99.90
48535;DHT22;34323;52.022;5.686;2023-04-25T13:37:34;19.30;99.90
48535;DHT22;34323;52.022;5.686;2023-04-25T13:40:00;19.30;99.90
48535;DHT22;34323;52.022;5.686;2023-04-25T13:42:26;20.00;99.90
48535;DHT22;34323;52.022;5.686;2023-04-25T13:44:51;20.80;99.90
48535;DHT22;34323;52.022;5.686;2023-04-25T13:47:17;21.10;99.50
48535;DHT22;34323;52.022;5.686;2023-04-25T13:49:42;21.40;98.90
48535;DHT22;34323;52.022;5.686;2023-04-25T13:52:08;22.30;99.20
48535;DHT22;34323;52.022;5.686;2023-04-25T13:54:33;22.20;99.90
48535;DHT22;34323;52.022;5.686;2023-04-25T13:56:59;22.60;99.90
48535;DHT22;34323;52.022;5.686;2023-04-25T13:59:25;22.20;99.90
48535;DHT22;34323;52.022;5.686;2023-04-25T14:01:51;21.20;99.90
48535;DHT22;34323;52.022;5.686;2023-04-25T14:04:17;19.80;99.90
48535;DHT22;34323;52.022;5.686;2023-04-25T14:06:42;19.00;99.90
48535;DHT22;34323;52.022;5.686;2023-04-25T14:09:08;18.50;99.90
48535;DHT22;34323;52.022;5.686;2023-04-25T14:11:36;18.60;99.90
48535;DHT22;34323;52.022;5.686;2023-04-25T14:14:02;19.50;99.90
48535;DHT22;34323;52.022;5.686;2023-04-25T14:16:28;21.10;99.90
48535;DHT22;34323;52.022;5.686;2023-04-25T14:18:53;22.00;99.90
48535;DHT22;34323;52.022;5.686;2023-04-25T14:21:20;22.90;99.90
48535;DHT22;34323;52.022;5.686;2023-04-25T14:23:46;23.80;98.30
48535;DHT22;34323;52.022;5.686;2023-04-25T14:26:12;24.00;98.90
48535;DHT22;34323;52.022;5.686;2023-04-25T14:28:38;25.10;98.60
48535;DHT22;34323;52.022;5.686;2023-04-25T14:31:03;25.40;97.50
48535;DHT22;34323;52.022;5.686;2023-04-25T14:33:29;24.40;97.20
48535;DHT22;34323;52.022;5.686;2023-04-25T14:35:56;23.40;97.50
48535;DHT22;34323;52.022;5.686;2023-04-25T14:38:21;21.60;97.40
48535;DHT22;34323;52.022;5.686;2023-04-25T14:40:49;20.00;98.30
48535;DHT22;34323;52.022;5.686;2023-04-25T14:43:14;18.90;99.20
48535;DHT22;34323;52.022;5.686;2023-04-25T14:45:40;17.90;99.90
48535;DHT22;34323;52.022;5.686;2023-04-25T14:48:06;17.30;99.90
48535;DHT22;34323;52.022;5.686;2023-04-25T14:50:32;17.30;99.70
48535;DHT22;34323;52.022;5.686;2023-04-25T14:52:58;17.90;99.90
48535;DHT22;34323;52.022;5.686;2023-04-25T14:55:28;19.00;99.90
48535;DHT22;34323;52.022;5.686;2023-04-25T14:57:54;20.10;99.90
48535;DHT22;34323;52.022;5.686;2023-04-25T15:00:21;21.10;99.90
48535;DHT22;34323;52.022;5.686;2023-04-25T15:02:48;21.40;97.70
48535;DHT22;34323;52.022;5.686;2023-04-25T15:05:13;21.40;98.10
48535;DHT22;34323;52.022;5.686;2023-04-25T15:07:39;21.10;98.00
48535;DHT22;34323;52.022;5.686;2023-04-25T15:10:06;20.30;98.10
48535;DHT22;34323;52.022;5.686;2023-04-25T15:12:36;18.50;99.50
48535;DHT22;34323;52.022;5.686;2023-04-25T15:15:03;17.90;99.70
48535;DHT22;34323;52.022;5.686;2023-04-25T15:17:28;18.00;99.90
48535;DHT22;34323;52.022;5.686;2023-04-25T15:19:56;18.00;99.90
48535;DHT22;34323;52.022;5.686;2023-04-25T15:22:22;17.50;99.90
48535;DHT22;34323;52.022;5.686;2023-04-25T15:24:47;17.40;99.90
48535;DHT22;34323;52.022;5.686;2023-04-25T15:27:13;17.20;99.90
48535;DHT22;34323;52.022;5.686;2023-04-25T15:29:39;18.20;99.90
48535;DHT22;34323;52.022;5.686;2023-04-25T15:32:05;18.90;99.90
48535;DHT22;34323;52.022;5.686;2023-04-25T15:34:31;19.60;99.90
48535;DHT22;34323;52.022;5.686;2023-04-25T15:36:57;20.20;99.20